Etretat — FIDP — position and weather

sailwx.info

Track history (hours):
 
Tides and Currents Weather Stations Pressure Air Temp Water Temp Dewpoint Dewpoint Depression Visibility Wind Speed Wind Dir Waves Ship Positions

Etretat

Last reported at 2014-Oct-02 12:15 UTC. Time now 2014-Oct-02 12:37 UTC.
Position N 50°32' W 000°50'.

Length 187 m; draft 6 m.

Type: Ship. MMSI: 228022900.

Date/timePositionNaut miles runAvg speedWind from/ knotsBaromVisibWave heightAir tempDewpointWater temp
2014-Oct-02 12:15N 50°32' W 000°50'1419.7
2014-Oct-02 11:33N 50°43' W 001°02'6 5.8
2014-Oct-02 10:33N 50°49' W 001°06'0 0.0
2014-Oct-02 09:33N 50°49' W 001°06'0 0.0
2014-Oct-02 08:33N 50°49' W 001°06'0 0.0
2014-Oct-02 07:33N 50°49' W 001°06'1 1.1
2014-Oct-02 06:33N 50°48' W 001°07'1313.3
2014-Oct-02 05:33N 50°37' W 000°54'1211.8
2014-Oct-02 04:30N 50°26' W 000°47'4112.1
2014-Oct-02 01:07N 49°48' W 000°22'711.9
2014-Oct-02 00:33N 49°42' W 000°17'8 7.8
2014-Oct-01 23:33N 49°37' W 000°08'0 0.5
2014-Oct-01 22:33N 49°37' W 000°09'2 1.8
2014-Oct-01 21:33N 49°37' W 000°06'9 9.2
2014-Oct-01 20:33N 49°30' E 000°03'2 2.4
2014-Oct-01 19:33N 49°29' E 000°07'0 0.0
2014-Oct-01 18:33N 49°29' E 000°07'0 0.0
2014-Oct-01 17:33N 49°29' E 000°07'0 0.0
2014-Oct-01 16:33N 49°29' E 000°07'1211.7
2014-Oct-01 15:34N 49°35' W 000°09'6220.2
2014-Oct-01 12:28N 50°32' W 000°48'1819.6
2014-Oct-01 11:34N 50°46' W 001°05'3 2.8
2014-Oct-01 10:33N 50°49' W 001°06'0 0.0
2014-Oct-01 09:33N 50°49' W 001°06'0 0.0
2014-Oct-01 08:33N 50°49' W 001°06'0 0.0
2014-Oct-01 07:33N 50°49' W 001°06'1 1.0
2014-Oct-01 06:33N 50°48' W 001°07'1313.4
2014-Oct-01 05:33N 50°37' W 000°55'1512.5
2014-Oct-01 04:22N 50°23' W 000°45'2612.5
2014-Oct-01 02:17N 49°59' W 000°29'912.7
2014-Oct-01 01:33N 49°50' W 000°25'1111.4
2014-Oct-01 00:33N 49°41' W 000°15'7 6.8
2014-Sep-30 23:33N 49°39' W 000°05'1 1.0
2014-Sep-30 22:33N 49°39' W 000°06'2 2.1
2014-Sep-30 21:33N 49°37' W 000°04'1010.1
2014-Sep-30 20:34N 49°29' E 000°06'1 0.5
2014-Sep-30 19:33N 49°29' E 000°07'0 0.0
2014-Sep-30 18:34N 49°29' E 000°07'0 0.0
2014-Sep-30 17:34N 49°29' E 000°07'0 0.0
2014-Sep-30 16:33N 49°29' E 000°07'9 9.1
2014-Sep-30 15:33N 49°35' W 000°03'6220.1
2014-Sep-30 12:28N 50°31' W 000°48'1820.0
2014-Sep-30 11:33N 50°45' W 001°05'4 3.6
2014-Sep-30 10:33N 50°49' W 001°06'0 0.0
2014-Sep-30 09:33N 50°49' W 001°06'0 0.0
2014-Sep-30 08:33N 50°49' W 001°06'0 0.0
2014-Sep-30 07:33N 50°49' W 001°06'0 0.0
2014-Sep-30 06:33N 50°49' W 001°06'0 0.0
2014-Sep-30 05:33N 50°49' W 001°06'0 0.0
2014-Sep-30 04:33N 50°49' W 001°06'0 0.0
2014-Sep-30 03:33N 50°49' W 001°06'0 0.0
2014-Sep-30 02:33N 50°49' W 001°06'0 0.0
2014-Sep-30 01:33N 50°49' W 001°06'0 0.0
2014-Sep-30 00:33N 50°49' W 001°06'0 0.0
2014-Sep-29 23:33N 50°49' W 001°06'1 1.1
2014-Sep-29 22:33N 50°48' W 001°07'1312.8
2014-Sep-29 21:34N 50°35' W 001°08'17217.1
2014-Sep-29 11:27N 48°46' W 004°34'1112.5
2014-Sep-29 10:33N 48°40' W 004°49'10 9.0
2014-Sep-29 09:25N 48°40' W 005°04'20 7.0
2014-Sep-29 06:31N 48°24' W 005°22'1414.7
2014-Sep-29 05:34N 48°10' W 005°16'1915.4
2014-Sep-29 04:19N 47°51' W 005°10'1114.5
2014-Sep-29 03:33N 47°41' W 005°05'98 3.7
2014-Sep-28 01:19N 46°09' W 004°17'10121.3
2014-Sep-27 20:33N 47°49' W 004°42'2120.8
2014-Sep-27 19:33N 48°09' W 004°46'1717.4
2014-Sep-27 18:33N 48°26' W 004°50'1816.9
2014-Sep-27 17:31N 48°43' W 004°40'15021.2
2014-Sep-27 10:26N 50°20' W 001°45'1719.2
2014-Sep-27 09:33N 50°29' W 001°22'1716.6
2014-Sep-27 08:34N 50°40' W 001°03'8 8.4
2014-Sep-27 07:33N 50°49' W 001°06'0 0.0
2014-Sep-27 06:33N 50°49' W 001°06'0 0.0
2014-Sep-27 05:33N 50°49' W 001°06'0 0.0
2014-Sep-27 04:33N 50°49' W 001°06'7 7.5
2014-Sep-27 03:33N 50°43' W 000°59'1211.8
2014-Sep-27 02:34N 50°32' W 000°52'1211.5
2014-Sep-27 01:33N 50°22' W 000°42'4711.6
2014-Sep-26 21:32N 49°41' W 000°07'1211.8
2014-Sep-26 20:34N 49°31' E 000°01'4 4.2
2014-Sep-26 19:34N 49°29' E 000°07'0 0.0
2014-Sep-26 18:34N 49°29' E 000°07'0 0.0
2014-Sep-26 17:34N 49°29' E 000°07'0 0.0
2014-Sep-26 16:34N 49°29' E 000°07'9 9.5
2014-Sep-26 15:33N 49°35' W 000°04'6019.8
2014-Sep-26 12:30N 50°29' W 000°47'1819.3
2014-Sep-26 11:34N 50°44' W 001°04'5 4.8
2014-Sep-26 10:34N 50°49' W 001°06'0 0.0
2014-Sep-26 09:34N 50°49' W 001°06'0 0.0
2014-Sep-26 08:34N 50°49' W 001°06'0 0.0
2014-Sep-26 07:34N 50°49' W 001°06'1 1.1
2014-Sep-26 06:33N 50°48' W 001°07'1313.3
2014-Sep-26 05:33N 50°37' W 000°54'1312.0
2014-Sep-26 04:28N 50°25' W 000°45'2311.6
2014-Sep-26 02:26N 50°05' W 000°27'2511.9
2014-Sep-26 00:20N 49°44' W 000°07'3 3.3
2014-Sep-25 23:33N 49°41' W 000°05'1 1.5
2014-Sep-25 22:33N 49°41' W 000°07'3 3.5
2014-Sep-25 21:33N 49°38' W 000°04'10 9.9
2014-Sep-25 20:33N 49°29' E 000°05'1 1.3
2014-Sep-25 19:33N 49°29' E 000°07'0 0.0
2014-Sep-25 18:33N 49°29' E 000°07'0 0.0
2014-Sep-25 17:33N 49°29' E 000°07'1 1.3
2014-Sep-25 16:33N 49°29' E 000°05'8 8.3
2014-Sep-25 15:34N 49°36' W 000°03'6220.6
2014-Sep-25 12:34N 50°30' W 000°48'1818.0
2014-Sep-25 11:34N 50°45' W 001°05'4 3.9
2014-Sep-25 10:33N 50°49' W 001°06'0 0.0
2014-Sep-25 09:33N 50°49' W 001°06'0 0.0
2014-Sep-25 08:33N 50°49' W 001°06'0 0.0
2014-Sep-25 07:33N 50°49' W 001°06'1 0.8
2014-Sep-25 06:33N 50°48' W 001°07'1313.5
2014-Sep-25 05:33N 50°37' W 000°54'1211.2
2014-Sep-25 04:28N 50°27' W 000°45'4611.7
2014-Sep-25 00:32N 49°46' W 000°12'1010.5
2014-Sep-24 23:33N 49°37' W 000°05'1 0.6
2014-Sep-24 22:33N 49°37' W 000°05'0 0.2
2014-Sep-24 21:33N 49°37' W 000°05'1010.1
2014-Sep-24 20:33N 49°29' E 000°05'1 1.1
2014-Sep-24 19:33N 49°29' E 000°07'0 0.0
2014-Sep-24 18:33N 49°29' E 000°07'0 0.0
2014-Sep-24 17:33N 49°29' E 000°07'0 0.0
2014-Sep-24 16:33N 49°29' E 000°07'9 9.2
2014-Sep-24 15:33N 49°35' W 000°03'6120.2
2014-Sep-24 12:33N 50°29' W 000°47'1818.4
2014-Sep-24 11:33N 50°44' W 001°04'5 4.7
2014-Sep-24 10:33N 50°49' W 001°06'0 0.0
2014-Sep-24 09:33N 50°49' W 001°06'0 0.0
2014-Sep-24 08:33N 50°49' W 001°06'0 0.0
2014-Sep-24 07:33N 50°49' W 001°06'1 0.9
2014-Sep-24 06:33N 50°48' W 001°07'1313.4
2014-Sep-24 05:33N 50°37' W 000°54'1111.0
2014-Sep-24 04:31N 50°27' W 000°45'4411.0
2014-Sep-24 00:33N 49°49' W 000°14'1110.8
2014-Sep-23 23:33N 49°39' W 000°06'2 2.4
2014-Sep-23 22:33N 49°37' W 000°04'0 0.5
2014-Sep-23 21:33N 49°37' W 000°04'10 9.9
2014-Sep-23 20:33N 49°29' E 000°06'1 0.8
2014-Sep-23 19:33N 49°29' E 000°07'0 0.0
2014-Sep-23 18:33N 49°29' E 000°07'0 0.0
2014-Sep-23 17:33N 49°29' E 000°07'0 0.0
2014-Sep-23 16:33N 49°29' E 000°07'7 6.7
2014-Sep-23 15:33N 49°33' W 000°01'6521.5
2014-Sep-23 12:33N 50°30' W 000°48'1818.2
2014-Sep-23 11:33N 50°45' W 001°05'4 3.8
2014-Sep-23 10:33N 50°49' W 001°06'0 0.0
2014-Sep-23 09:33N 50°49' W 001°06'0 0.0
2014-Sep-23 08:33N 50°49' W 001°06'0 0.0
2014-Sep-23 07:33N 50°49' W 001°06'4 4.5
2014-Sep-23 06:33N 50°44' W 001°04'1919.4
2014-Sep-23 05:33N 50°31' W 000°41'4410.9
2014-Sep-23 01:33N 49°50' W 000°18'1111.0
2014-Sep-23 00:33N 49°41' W 000°09'1110.8
2014-Sep-22 23:33N 49°32' W 000°00'5 5.5
2014-Sep-22 22:33N 49°29' E 000°07'0 0.0
2014-Sep-22 21:34N 49°29' E 000°07'7 6.6
2014-Sep-22 20:33N 49°33' W 000°01'6621.7
2014-Sep-22 17:32N 50°31' W 000°49'1818.8
2014-Sep-22 16:33N 50°46' W 001°05'2 2.4
2014-Sep-22 15:33N 50°49' W 001°06'0 0.0
2014-Sep-22 14:33N 50°49' W 001°06'1 1.5
2014-Sep-22 13:33N 50°47' W 001°06'1312.8
2014-Sep-22 12:33N 50°35' W 001°08'  
Track history (hours):
 
Tides and Currents Weather Stations Pressure Air Temp Water Temp Dewpoint Dewpoint Depression Visibility Wind Speed Wind Dir Waves Ship Positions

Etretat

Last reported at 2014-Oct-02 12:15 UTC. Time now 2014-Oct-02 12:37 UTC.
Position N 50°32' W 000°50'.

Length 187 m; draft 6 m.

Type: Ship. MMSI: 228022900.

Date/timePositionNaut miles runAvg speedWind from/ knotsBaromVisibWave heightAir tempDewpointWater temp
2014-Oct-02 12:15N 50°32' W 000°50'1419.7
2014-Oct-02 11:33N 50°43' W 001°02'6 5.8
2014-Oct-02 10:33N 50°49' W 001°06'0 0.0
2014-Oct-02 09:33N 50°49' W 001°06'0 0.0
2014-Oct-02 08:33N 50°49' W 001°06'0 0.0
2014-Oct-02 07:33N 50°49' W 001°06'1 1.1
2014-Oct-02 06:33N 50°48' W 001°07'1313.3
2014-Oct-02 05:33N 50°37' W 000°54'1211.8
2014-Oct-02 04:30N 50°26' W 000°47'4112.1
2014-Oct-02 01:07N 49°48' W 000°22'711.9
2014-Oct-02 00:33N 49°42' W 000°17'8 7.8
2014-Oct-01 23:33N 49°37' W 000°08'0 0.5
2014-Oct-01 22:33N 49°37' W 000°09'2 1.8
2014-Oct-01 21:33N 49°37' W 000°06'9 9.2
2014-Oct-01 20:33N 49°30' E 000°03'2 2.4
2014-Oct-01 19:33N 49°29' E 000°07'0 0.0
2014-Oct-01 18:33N 49°29' E 000°07'0 0.0
2014-Oct-01 17:33N 49°29' E 000°07'0 0.0
2014-Oct-01 16:33N 49°29' E 000°07'1211.7
2014-Oct-01 15:34N 49°35' W 000°09'6220.2
2014-Oct-01 12:28N 50°32' W 000°48'1819.6
2014-Oct-01 11:34N 50°46' W 001°05'3 2.8
2014-Oct-01 10:33N 50°49' W 001°06'0 0.0
2014-Oct-01 09:33N 50°49' W 001°06'0 0.0
2014-Oct-01 08:33N 50°49' W 001°06'0 0.0
2014-Oct-01 07:33N 50°49' W 001°06'1 1.0
2014-Oct-01 06:33N 50°48' W 001°07'1313.4
2014-Oct-01 05:33N 50°37' W 000°55'1512.5
2014-Oct-01 04:22N 50°23' W 000°45'2612.5
2014-Oct-01 02:17N 49°59' W 000°29'912.7
2014-Oct-01 01:33N 49°50' W 000°25'1111.4
2014-Oct-01 00:33N 49°41' W 000°15'7 6.8
2014-Sep-30 23:33N 49°39' W 000°05'1 1.0
2014-Sep-30 22:33N 49°39' W 000°06'2 2.1
2014-Sep-30 21:33N 49°37' W 000°04'1010.1
2014-Sep-30 20:34N 49°29' E 000°06'1 0.5
2014-Sep-30 19:33N 49°29' E 000°07'0 0.0
2014-Sep-30 18:34N 49°29' E 000°07'0 0.0
2014-Sep-30 17:34N 49°29' E 000°07'0 0.0
2014-Sep-30 16:33N 49°29' E 000°07'9 9.1
2014-Sep-30 15:33N 49°35' W 000°03'6220.1
2014-Sep-30 12:28N 50°31' W 000°48'1820.0
2014-Sep-30 11:33N 50°45' W 001°05'4 3.6
2014-Sep-30 10:33N 50°49' W 001°06'0 0.0
2014-Sep-30 09:33N 50°49' W 001°06'0 0.0
2014-Sep-30 08:33N 50°49' W 001°06'0 0.0
2014-Sep-30 07:33N 50°49' W 001°06'0 0.0
2014-Sep-30 06:33N 50°49' W 001°06'0 0.0
2014-Sep-30 05:33N 50°49' W 001°06'0 0.0
2014-Sep-30 04:33N 50°49' W 001°06'0 0.0
2014-Sep-30 03:33N 50°49' W 001°06'0 0.0
2014-Sep-30 02:33N 50°49' W 001°06'0 0.0
2014-Sep-30 01:33N 50°49' W 001°06'0 0.0
2014-Sep-30 00:33N 50°49' W 001°06'0 0.0
2014-Sep-29 23:33N 50°49' W 001°06'1 1.1
2014-Sep-29 22:33N 50°48' W 001°07'1312.8
2014-Sep-29 21:34N 50°35' W 001°08'17217.1
2014-Sep-29 11:27N 48°46' W 004°34'1112.5
2014-Sep-29 10:33N 48°40' W 004°49'10 9.0
2014-Sep-29 09:25N 48°40' W 005°04'20 7.0
2014-Sep-29 06:31N 48°24' W 005°22'1414.7
2014-Sep-29 05:34N 48°10' W 005°16'1915.4
2014-Sep-29 04:19N 47°51' W 005°10'1114.5
2014-Sep-29 03:33N 47°41' W 005°05'98 3.7
2014-Sep-28 01:19N 46°09' W 004°17'10121.3
2014-Sep-27 20:33N 47°49' W 004°42'2120.8
2014-Sep-27 19:33N 48°09' W 004°46'1717.4
2014-Sep-27 18:33N 48°26' W 004°50'1816.9
2014-Sep-27 17:31N 48°43' W 004°40'15021.2
2014-Sep-27 10:26N 50°20' W 001°45'1719.2
2014-Sep-27 09:33N 50°29' W 001°22'1716.6
2014-Sep-27 08:34N 50°40' W 001°03'8 8.4
2014-Sep-27 07:33N 50°49' W 001°06'0 0.0
2014-Sep-27 06:33N 50°49' W 001°06'0 0.0
2014-Sep-27 05:33N 50°49' W 001°06'0 0.0
2014-Sep-27 04:33N 50°49' W 001°06'7 7.5
2014-Sep-27 03:33N 50°43' W 000°59'1211.8
2014-Sep-27 02:34N 50°32' W 000°52'1211.5
2014-Sep-27 01:33N 50°22' W 000°42'4711.6
2014-Sep-26 21:32N 49°41' W 000°07'1211.8
2014-Sep-26 20:34N 49°31' E 000°01'4 4.2
2014-Sep-26 19:34N 49°29' E 000°07'0 0.0
2014-Sep-26 18:34N 49°29' E 000°07'0 0.0
2014-Sep-26 17:34N 49°29' E 000°07'0 0.0
2014-Sep-26 16:34N 49°29' E 000°07'9 9.5
2014-Sep-26 15:33N 49°35' W 000°04'6019.8
2014-Sep-26 12:30N 50°29' W 000°47'1819.3
2014-Sep-26 11:34N 50°44' W 001°04'5 4.8
2014-Sep-26 10:34N 50°49' W 001°06'0 0.0
2014-Sep-26 09:34N 50°49' W 001°06'0 0.0
2014-Sep-26 08:34N 50°49' W 001°06'0 0.0
2014-Sep-26 07:34N 50°49' W 001°06'1 1.1
2014-Sep-26 06:33N 50°48' W 001°07'1313.3
2014-Sep-26 05:33N 50°37' W 000°54'1312.0
2014-Sep-26 04:28N 50°25' W 000°45'2311.6
2014-Sep-26 02:26N 50°05' W 000°27'2511.9
2014-Sep-26 00:20N 49°44' W 000°07'3 3.3
2014-Sep-25 23:33N 49°41' W 000°05'1 1.5
2014-Sep-25 22:33N 49°41' W 000°07'3 3.5
2014-Sep-25 21:33N 49°38' W 000°04'10 9.9
2014-Sep-25 20:33N 49°29' E 000°05'1 1.3
2014-Sep-25 19:33N 49°29' E 000°07'0 0.0
2014-Sep-25 18:33N 49°29' E 000°07'0 0.0
2014-Sep-25 17:33N 49°29' E 000°07'1 1.3
2014-Sep-25 16:33N 49°29' E 000°05'8 8.3
2014-Sep-25 15:34N 49°36' W 000°03'6220.6
2014-Sep-25 12:34N 50°30' W 000°48'1818.0
2014-Sep-25 11:34N 50°45' W 001°05'4 3.9
2014-Sep-25 10:33N 50°49' W 001°06'0 0.0
2014-Sep-25 09:33N 50°49' W 001°06'0 0.0
2014-Sep-25 08:33N 50°49' W 001°06'0 0.0
2014-Sep-25 07:33N 50°49' W 001°06'1 0.8
2014-Sep-25 06:33N 50°48' W 001°07'1313.5
2014-Sep-25 05:33N 50°37' W 000°54'1211.2
2014-Sep-25 04:28N 50°27' W 000°45'4611.7
2014-Sep-25 00:32N 49°46' W 000°12'1010.5
2014-Sep-24 23:33N 49°37' W 000°05'1 0.6
2014-Sep-24 22:33N 49°37' W 000°05'0 0.2
2014-Sep-24 21:33N 49°37' W 000°05'1010.1
2014-Sep-24 20:33N 49°29' E 000°05'1 1.1
2014-Sep-24 19:33N 49°29' E 000°07'0 0.0
2014-Sep-24 18:33N 49°29' E 000°07'0 0.0
2014-Sep-24 17:33N 49°29' E 000°07'0 0.0
2014-Sep-24 16:33N 49°29' E 000°07'9 9.2
2014-Sep-24 15:33N 49°35' W 000°03'6120.2
2014-Sep-24 12:33N 50°29' W 000°47'1818.4
2014-Sep-24 11:33N 50°44' W 001°04'5 4.7
2014-Sep-24 10:33N 50°49' W 001°06'0 0.0
2014-Sep-24 09:33N 50°49' W 001°06'0 0.0
2014-Sep-24 08:33N 50°49' W 001°06'0 0.0
2014-Sep-24 07:33N 50°49' W 001°06'1 0.9
2014-Sep-24 06:33N 50°48' W 001°07'1313.4
2014-Sep-24 05:33N 50°37' W 000°54'1111.0
2014-Sep-24 04:31N 50°27' W 000°45'4411.0
2014-Sep-24 00:33N 49°49' W 000°14'1110.8
2014-Sep-23 23:33N 49°39' W 000°06'2 2.4
2014-Sep-23 22:33N 49°37' W 000°04'0 0.5
2014-Sep-23 21:33N 49°37' W 000°04'10 9.9
2014-Sep-23 20:33N 49°29' E 000°06'1 0.8
2014-Sep-23 19:33N 49°29' E 000°07'0 0.0
2014-Sep-23 18:33N 49°29' E 000°07'0 0.0
2014-Sep-23 17:33N 49°29' E 000°07'0 0.0
2014-Sep-23 16:33N 49°29' E 000°07'7 6.7
2014-Sep-23 15:33N 49°33' W 000°01'6521.5
2014-Sep-23 12:33N 50°30' W 000°48'1818.2
2014-Sep-23 11:33N 50°45' W 001°05'4 3.8
2014-Sep-23 10:33N 50°49' W 001°06'0 0.0
2014-Sep-23 09:33N 50°49' W 001°06'0 0.0
2014-Sep-23 08:33N 50°49' W 001°06'0 0.0
2014-Sep-23 07:33N 50°49' W 001°06'4 4.5
2014-Sep-23 06:33N 50°44' W 001°04'1919.4
2014-Sep-23 05:33N 50°31' W 000°41'4410.9
2014-Sep-23 01:33N 49°50' W 000°18'1111.0
2014-Sep-23 00:33N 49°41' W 000°09'1110.8
2014-Sep-22 23:33N 49°32' W 000°00'5 5.5
2014-Sep-22 22:33N 49°29' E 000°07'0 0.0
2014-Sep-22 21:34N 49°29' E 000°07'7 6.6
2014-Sep-22 20:33N 49°33' W 000°01'6621.7
2014-Sep-22 17:32N 50°31' W 000°49'1818.8
2014-Sep-22 16:33N 50°46' W 001°05'2 2.4
2014-Sep-22 15:33N 50°49' W 001°06'0 0.0
2014-Sep-22 14:33N 50°49' W 001°06'1 1.5
2014-Sep-22 13:33N 50°47' W 001°06'1312.8
2014-Sep-22 12:33N 50°35' W 001°08'  

Dump ship's entire track history